createdAt,value
2018-11-29T00:02:50.604Z,79.20
2018-11-29T00:05:54.622Z,79.30
2018-11-29T00:08:58.728Z,79.30
2018-11-29T00:12:02.724Z,79.20
2018-11-29T00:15:09.859Z,79.30
2018-11-29T00:18:13.863Z,79.50
2018-11-29T00:21:17.868Z,79.60
2018-11-29T00:24:21.874Z,79.60
2018-11-29T00:27:25.879Z,79.80
2018-11-29T00:30:29.903Z,79.80
2018-11-29T00:33:33.920Z,79.70
2018-11-29T00:36:38.014Z,79.70
2018-11-29T00:39:42.024Z,79.50
2018-11-29T00:42:46.046Z,79.30
2018-11-29T00:45:50.054Z,79.30
2018-11-29T00:48:54.063Z,79.30
2018-11-29T00:51:58.058Z,79.10
2018-11-29T00:55:02.083Z,79.00
2018-11-29T00:58:06.104Z,78.90
2018-11-29T01:01:10.115Z,78.90
2018-11-29T01:04:14.123Z,78.80
2018-11-29T01:07:18.122Z,78.80
2018-11-29T01:10:22.134Z,78.90
2018-11-29T01:13:26.142Z,78.60
2018-11-29T01:16:30.144Z,78.70
2018-11-29T01:19:34.161Z,78.80
2018-11-29T01:22:38.173Z,78.80
2018-11-29T01:25:42.174Z,78.70
2018-11-29T01:28:46.177Z,78.80
2018-11-29T01:31:50.181Z,78.90
2018-11-29T01:34:54.202Z,79.00
2018-11-29T01:37:58.207Z,79.20
2018-11-29T01:41:02.217Z,79.10
2018-11-29T01:44:06.596Z,79.20
2018-11-29T01:47:10.589Z,79.00
2018-11-29T01:50:14.599Z,78.80
2018-11-29T01:53:18.629Z,79.00
2018-11-29T01:56:22.622Z,79.20
2018-11-29T01:59:26.626Z,79.20
2018-11-29T02:02:30.623Z,79.10
2018-11-29T02:05:34.631Z,79.30
2018-11-29T02:08:38.638Z,79.30
2018-11-29T02:11:42.626Z,79.50
2018-11-29T02:14:46.641Z,79.70
2018-11-29T02:17:50.784Z,79.60
2018-11-29T02:20:54.776Z,79.40
2018-11-29T02:23:58.785Z,79.30
2018-11-29T02:27:02.792Z,79.30
2018-11-29T02:30:10.162Z,80.20
2018-11-29T02:33:14.164Z,79.50
2018-11-29T02:36:18.178Z,79.30
2018-11-29T04:44:01.408Z,82.00
2018-11-29T04:47:05.499Z,82.00
2018-11-29T04:50:09.498Z,81.90
2018-11-29T04:53:13.525Z,81.90
2018-11-29T04:56:17.541Z,82.10
2018-11-29T04:59:21.611Z,82.30
2018-11-29T05:02:25.648Z,82.10
2018-11-29T05:05:29.638Z,82.10
2018-11-29T05:08:33.651Z,82.00
2018-11-29T05:11:38.003Z,82.10
2018-11-29T05:14:41.987Z,82.10
2018-11-29T05:17:46.015Z,82.10
2018-11-29T05:20:50.014Z,82.30
2018-11-29T05:23:54.043Z,82.30
2018-11-29T05:26:58.068Z,83.10
2018-11-29T05:30:02.083Z,82.20
2018-11-29T05:33:06.100Z,82.00
2018-11-29T05:36:10.211Z,81.80
2018-11-29T05:39:14.770Z,81.70
2018-11-29T05:42:19.172Z,82.00
2018-11-29T05:45:23.830Z,81.60
2018-11-29T05:48:28.015Z,81.20
2018-11-29T05:51:32.031Z,80.90
2018-11-29T05:54:36.055Z,80.80
2018-11-29T05:57:40.067Z,80.70
2018-11-29T06:00:44.184Z,80.50
2018-11-29T06:03:48.195Z,80.50
2018-11-29T06:06:52.226Z,80.30
2018-11-29T06:09:56.278Z,79.60
2018-11-29T06:13:00.280Z,79.20
2018-11-29T06:16:04.363Z,79.20
2018-11-29T06:19:09.576Z,79.10
2018-11-29T06:22:13.600Z,79.30
2018-11-29T06:25:17.691Z,79.10
2018-11-29T06:28:21.733Z,79.00
2018-11-29T06:31:25.983Z,79.00
2018-11-29T06:34:29.999Z,78.90
2018-11-29T06:37:34.484Z,79.00
2018-11-29T06:40:38.482Z,78.80
2018-11-29T06:43:42.481Z,78.70
2018-11-29T06:46:46.469Z,78.30
2018-11-29T06:49:50.755Z,78.00
2018-11-29T06:52:55.162Z,77.60
2018-11-29T06:55:59.171Z,77.30
2018-11-29T06:59:03.366Z,76.80
2018-11-29T07:02:07.450Z,76.50
2018-11-29T07:05:11.571Z,76.20
2018-11-29T07:08:15.576Z,76.30
2018-11-29T07:11:19.587Z,76.10
2018-11-29T07:14:23.595Z,76.20
2018-11-29T07:17:27.630Z,76.10
2018-11-29T07:20:31.600Z,76.10
2018-11-29T07:23:35.602Z,75.90
2018-11-29T07:26:39.738Z,75.90
2018-11-29T07:29:43.746Z,76.00
2018-11-29T07:32:47.779Z,75.70
2018-11-29T07:35:51.770Z,75.10
2018-11-29T07:38:55.790Z,74.80
2018-11-29T07:41:59.790Z,74.70
2018-11-29T07:45:04.178Z,74.70
2018-11-29T07:48:08.178Z,74.90
2018-11-29T07:51:12.182Z,74.70
2018-11-29T07:54:16.305Z,74.40
2018-11-29T07:57:20.431Z,74.30
2018-11-29T08:00:24.394Z,74.20
2018-11-29T08:03:28.421Z,74.20
2018-11-29T08:06:32.406Z,74.50
2018-11-29T08:09:37.186Z,74.20
2018-11-29T08:12:41.192Z,73.80
2018-11-29T08:15:45.215Z,73.60
2018-11-29T08:18:49.198Z,74.00
2018-11-29T08:21:53.210Z,74.20
2018-11-29T08:24:57.354Z,74.40
2018-11-29T08:28:01.358Z,74.40
2018-11-29T08:31:05.594Z,74.30
2018-11-29T08:34:09.598Z,74.40
2018-11-29T08:37:13.621Z,74.40
2018-11-29T08:40:18.777Z,74.60
2018-11-29T08:43:22.816Z,74.60
2018-11-29T08:46:26.792Z,74.50
2018-11-29T08:49:30.792Z,74.60
2018-11-29T08:52:34.807Z,74.00
2018-11-29T08:55:38.794Z,73.80
2018-11-29T08:58:42.794Z,73.30
2018-11-29T09:01:46.798Z,73.10
2018-11-29T09:04:50.817Z,73.00
2018-11-29T09:07:54.840Z,72.80
2018-11-29T09:10:58.841Z,72.20
2018-11-29T09:14:03.471Z,72.00
2018-11-29T09:17:07.572Z,71.90
2018-11-29T09:20:13.510Z,71.60
2018-11-29T09:23:17.519Z,70.90
2018-11-29T09:26:21.555Z,70.80
2018-11-29T09:29:25.678Z,70.20
2018-11-29T09:32:29.663Z,70.10
2018-11-29T09:35:33.790Z,69.80
2018-11-29T09:38:37.986Z,69.60
2018-11-29T09:41:41.986Z,69.30
2018-11-29T09:44:46.012Z,69.00
2018-11-29T09:47:51.091Z,68.80
2018-11-29T09:50:55.098Z,68.40
2018-11-29T09:53:59.268Z,68.10
2018-11-29T09:57:03.268Z,67.70
2018-11-29T10:00:19.586Z,67.80
2018-11-29T10:03:23.702Z,68.10
2018-11-29T10:06:27.711Z,66.80
2018-11-29T10:09:31.714Z,66.60
2018-11-29T10:12:35.738Z,66.40
2018-11-29T10:15:39.739Z,66.10
2018-11-29T10:18:44.335Z,65.90
2018-11-29T10:21:48.330Z,65.80
2018-11-29T10:24:52.336Z,65.30
2018-11-29T10:27:58.106Z,65.30
2018-11-29T10:31:02.946Z,64.60
2018-11-29T10:34:07.001Z,64.10
2018-11-29T10:37:11.065Z,63.70
2018-11-29T10:40:15.110Z,63.60
2018-11-29T10:43:19.101Z,63.50
2018-11-29T10:46:24.094Z,63.00
2018-11-29T10:49:28.118Z,62.80
2018-11-29T10:52:32.180Z,62.20
2018-11-29T10:55:36.177Z,61.80
2018-11-29T10:58:40.178Z,61.50
2018-11-29T11:01:49.483Z,60.70
2018-11-29T11:04:53.507Z,60.70
2018-11-29T11:07:58.008Z,60.20
2018-11-29T11:11:05.962Z,60.00
2018-11-29T11:14:09.958Z,59.90
2018-11-29T11:17:15.110Z,59.40
2018-11-29T11:20:19.149Z,59.00
2018-11-29T11:23:23.143Z,58.70
2018-11-29T11:26:27.203Z,58.50
2018-11-29T11:29:31.163Z,58.40
2018-11-29T11:32:35.206Z,58.10
2018-11-29T11:35:39.204Z,57.90
2018-11-29T11:38:43.222Z,57.90
2018-11-29T11:41:47.205Z,57.50
2018-11-29T11:44:51.219Z,56.50
2018-11-29T11:47:55.253Z,56.60
2018-11-29T11:50:59.255Z,56.40
2018-11-29T11:54:03.256Z,56.00
2018-11-29T11:57:07.250Z,55.30
2018-11-29T12:00:15.451Z,55.10
2018-11-29T12:03:19.458Z,54.90
2018-11-29T12:06:23.478Z,54.50
2018-11-29T12:09:27.478Z,54.40
2018-11-29T12:12:31.488Z,54.60
2018-11-29T12:15:36.138Z,54.50
2018-11-29T12:18:40.153Z,54.10
2018-11-29T12:21:44.155Z,53.70
2018-11-29T12:24:48.229Z,53.60
2018-11-29T12:27:52.544Z,53.60
2018-11-29T12:30:56.535Z,53.70
2018-11-29T12:34:00.541Z,53.50
2018-11-29T12:37:04.746Z,53.40
2018-11-29T12:40:11.130Z,53.40
2018-11-29T12:43:15.126Z,53.20
2018-11-29T12:46:19.130Z,53.20
2018-11-29T12:49:23.119Z,53.10
2018-11-29T12:52:27.116Z,52.90
2018-11-29T12:55:31.131Z,52.60
2018-11-29T12:58:35.159Z,52.40
2018-11-29T13:01:39.170Z,53.20
2018-11-29T13:04:43.180Z,52.30
2018-11-29T13:07:47.166Z,52.40
2018-11-29T13:10:51.366Z,52.30
2018-11-29T13:13:55.409Z,52.40
2018-11-29T13:16:59.365Z,51.90
2018-11-29T13:20:03.419Z,51.60
2018-11-29T13:23:07.426Z,51.50
2018-11-29T13:26:11.435Z,51.60
2018-11-29T13:29:15.876Z,51.40
2018-11-29T13:32:20.118Z,51.20
2018-11-29T13:35:25.423Z,51.20
2018-11-29T13:38:29.440Z,51.30
2018-11-29T13:41:33.446Z,51.10
2018-11-29T13:44:37.442Z,51.10
2018-11-29T13:47:41.713Z,51.10
2018-11-29T13:50:45.713Z,51.10
2018-11-29T13:53:49.708Z,51.10
2018-11-29T13:56:53.711Z,51.10
2018-11-29T13:59:57.701Z,51.10
2018-11-29T14:03:04.732Z,51.00
2018-11-29T14:06:08.738Z,51.50
2018-11-29T14:09:12.741Z,50.70
2018-11-29T14:12:16.777Z,50.80
2018-11-29T14:15:23.048Z,51.10
2018-11-29T14:18:27.058Z,51.40
2018-11-29T14:21:32.059Z,51.50
2018-11-29T14:24:36.051Z,51.70
2018-11-29T14:27:40.639Z,51.80
2018-11-29T14:30:44.628Z,51.80
2018-11-29T14:33:48.630Z,51.80
2018-11-29T14:36:52.623Z,51.90
2018-11-29T14:39:56.635Z,51.80
2018-11-29T14:43:00.646Z,51.40
2018-11-29T14:46:04.910Z,51.40
2018-11-29T14:49:08.917Z,51.70
2018-11-29T14:52:12.918Z,51.80
2018-11-29T14:55:16.908Z,52.00
2018-11-29T14:58:20.915Z,52.30
2018-11-29T15:01:24.906Z,52.30
2018-11-29T15:04:29.021Z,52.40
2018-11-29T15:07:33.022Z,52.30
2018-11-29T15:10:37.754Z,52.50
2018-11-29T15:13:41.758Z,52.60
2018-11-29T15:16:45.770Z,53.30
2018-11-29T15:19:49.766Z,52.80
2018-11-29T15:22:53.797Z,52.80
2018-11-29T15:25:57.803Z,52.80
2018-11-29T15:29:01.918Z,52.90
2018-11-29T15:32:06.019Z,53.10
2018-11-29T15:35:10.030Z,53.10
2018-11-29T15:38:14.062Z,53.40
2018-11-29T15:41:18.273Z,53.50
2018-11-29T15:44:22.130Z,53.50
2018-11-29T15:47:26.146Z,53.50
2018-11-29T15:50:30.158Z,53.40
2018-11-29T15:53:34.173Z,53.30
2018-11-29T15:56:38.180Z,53.00
2018-11-29T15:59:42.194Z,52.90
2018-11-29T16:02:47.238Z,52.30
2018-11-29T16:05:51.272Z,52.00
2018-11-29T16:08:55.644Z,51.80
2018-11-29T16:11:59.693Z,51.40
2018-11-29T16:15:03.752Z,51.30
2018-11-29T16:18:07.755Z,51.30
2018-11-29T16:21:11.784Z,50.70
2018-11-29T16:24:16.247Z,50.30
2018-11-29T16:27:20.311Z,50.20
2018-11-29T16:30:57.731Z,50.00
2018-11-29T16:34:01.895Z,49.80
2018-11-29T16:37:06.386Z,49.60
2018-11-29T16:40:10.466Z,50.20
2018-11-29T16:43:14.477Z,49.50
2018-11-29T16:46:18.527Z,49.60
2018-11-29T16:49:22.598Z,49.40
2018-11-29T16:52:26.964Z,49.20
2018-11-29T16:55:30.974Z,49.00
2018-11-29T16:58:35.974Z,48.70
2018-11-29T17:01:40.626Z,48.60
2018-11-29T17:04:44.702Z,48.60
2018-11-29T17:07:48.844Z,48.60
2018-11-29T17:10:52.840Z,48.60
2018-11-29T17:13:57.860Z,48.70
2018-11-29T17:17:01.888Z,48.80
2018-11-29T17:20:09.323Z,49.00
2018-11-29T17:23:13.501Z,49.10
2018-11-29T17:26:17.478Z,49.30
2018-11-29T17:29:21.579Z,49.40
2018-11-29T17:32:25.571Z,49.60
2018-11-29T17:35:29.577Z,49.70
2018-11-29T17:38:33.607Z,50.00
2018-11-29T17:41:38.050Z,50.30
2018-11-29T17:44:42.167Z,50.20
2018-11-29T17:47:46.358Z,50.30
2018-11-29T17:50:50.388Z,50.30
2018-11-29T17:53:54.461Z,50.50
2018-11-29T17:56:58.474Z,50.60
2018-11-29T18:00:02.652Z,50.90
2018-11-29T18:03:07.491Z,50.90
2018-11-29T18:06:11.596Z,51.10
2018-11-29T18:09:16.443Z,51.40
2018-11-29T18:12:20.446Z,51.40
2018-11-29T18:15:26.063Z,51.50
2018-11-29T18:18:30.073Z,51.70
2018-11-29T18:21:34.075Z,52.00
2018-11-29T18:24:38.084Z,52.20
2018-11-29T18:27:44.544Z,52.40
2018-11-29T18:30:48.551Z,52.60
2018-11-29T18:33:52.546Z,52.80
2018-11-29T18:36:56.566Z,52.90
2018-11-29T18:40:00.570Z,53.30
2018-11-29T18:43:05.849Z,53.50
2018-11-29T18:46:09.867Z,53.70
2018-11-29T18:49:13.868Z,53.80
2018-11-29T18:52:17.884Z,53.90
2018-11-29T18:55:25.599Z,54.00
2018-11-29T18:58:29.599Z,54.00
2018-11-29T19:01:33.637Z,54.10
2018-11-29T19:04:37.638Z,54.20
2018-11-29T19:07:42.052Z,54.30
2018-11-29T19:10:45.998Z,54.20
2018-11-29T19:13:49.992Z,54.80
2018-11-29T19:16:54.002Z,54.20
2018-11-29T19:19:58.051Z,54.20
2018-11-29T19:23:02.054Z,54.10
2018-11-29T19:26:06.827Z,54.40
2018-11-29T19:29:10.765Z,54.10
2018-11-29T19:32:14.770Z,54.00
2018-11-29T19:35:18.785Z,53.80
2018-11-29T19:38:22.782Z,53.70
2018-11-29T19:41:26.799Z,54.40
2018-11-29T19:44:30.787Z,54.00
2018-11-29T19:47:34.803Z,53.90
2018-11-29T19:50:38.819Z,53.70
2018-11-29T19:53:42.826Z,53.70
2018-11-29T19:56:46.821Z,54.40
2018-11-29T19:59:50.838Z,53.60
2018-11-29T20:02:55.764Z,53.70
2018-11-29T20:05:59.775Z,53.90
2018-11-29T20:09:04.394Z,53.90
2018-11-29T20:12:08.394Z,54.20
2018-11-29T20:15:16.886Z,54.20
2018-11-29T20:18:20.887Z,54.30
2018-11-29T20:21:25.519Z,54.30
2018-11-29T20:24:29.554Z,54.30
2018-11-29T20:27:33.563Z,54.30
2018-11-29T20:30:37.563Z,54.40
2018-11-29T20:33:41.570Z,54.40
2018-11-29T20:36:45.568Z,54.50
2018-11-29T20:39:49.582Z,54.60
2018-11-29T20:42:54.899Z,54.70
2018-11-29T20:45:58.886Z,54.80
2018-11-29T20:49:02.899Z,55.10
2018-11-29T20:52:07.021Z,55.20
2018-11-29T20:55:20.078Z,55.40
2018-11-29T20:58:24.136Z,55.60
2018-11-29T21:01:28.138Z,55.80
2018-11-29T21:04:32.193Z,56.10
2018-11-29T21:07:37.266Z,56.70
2018-11-29T21:10:41.279Z,56.40
2018-11-29T21:13:45.286Z,56.60
2018-11-29T21:16:49.876Z,56.70
2018-11-29T21:19:53.893Z,56.80
2018-11-29T21:22:57.921Z,57.00
2018-11-29T21:26:01.943Z,57.10
2018-11-29T21:29:05.981Z,57.30
2018-11-29T21:32:09.959Z,57.40
2018-11-29T21:35:16.260Z,57.60
2018-11-29T21:38:21.179Z,57.70
2018-11-29T21:41:25.329Z,57.80
2018-11-29T21:44:29.385Z,57.90
2018-11-29T21:47:33.389Z,58.00
2018-11-29T21:50:37.414Z,58.10
2018-11-29T21:53:41.436Z,58.10
2018-11-29T21:56:45.438Z,58.20
2018-11-29T21:59:49.454Z,58.20
2018-11-29T22:02:57.318Z,58.20
2018-11-29T22:06:01.344Z,58.40
2018-11-29T22:09:06.567Z,58.50
2018-11-29T22:12:10.631Z,58.60
2018-11-29T22:15:14.642Z,58.60
2018-11-29T22:18:20.671Z,58.70
2018-11-29T22:21:24.677Z,58.80
2018-11-29T22:24:28.722Z,58.90
2018-11-29T22:27:32.742Z,59.00
2018-11-29T22:30:36.767Z,59.10
2018-11-29T22:33:40.786Z,59.00
2018-11-29T22:36:44.817Z,59.00
2018-11-29T22:39:48.850Z,59.10
2018-11-29T22:42:52.871Z,59.20
2018-11-29T22:45:56.914Z,59.30
2018-11-29T22:49:00.943Z,59.50
2018-11-29T22:52:05.231Z,60.30
2018-11-29T22:55:09.249Z,59.80
2018-11-29T22:58:13.247Z,60.00
2018-11-29T23:01:22.839Z,60.10
2018-11-29T23:04:26.834Z,60.20
2018-11-29T23:07:30.858Z,60.50
2018-11-29T23:10:34.886Z,60.70
2018-11-29T23:13:38.885Z,60.90
2018-11-29T23:16:42.898Z,61.10
2018-11-29T23:19:46.897Z,61.00
2018-11-29T23:22:50.910Z,61.40
2018-11-29T23:25:54.933Z,61.60
2018-11-29T23:28:58.929Z,61.60
2018-11-29T23:32:02.954Z,61.70
2018-11-29T23:35:06.967Z,61.80
2018-11-29T23:38:10.988Z,62.00
2018-11-29T23:41:15.014Z,62.10
2018-11-29T23:44:19.006Z,62.40
2018-11-29T23:47:23.022Z,62.50
2018-11-29T23:50:27.092Z,62.60
2018-11-29T23:53:31.095Z,62.70
2018-11-29T23:56:35.103Z,62.80
2018-11-29T23:59:39.103Z,62.90
